sensor_id;sensor_type;location;lat;lon;timestamp;pressure;altitude;pressure_sealevel;temperature;humidity
11223;BME280;5668;52.012;8.724;2024-01-30T00:00:36;101378.88;;;6.61;87.40
11223;BME280;5668;52.012;8.724;2024-01-30T00:03:04;101386.53;;;6.63;87.31
11223;BME280;5668;52.012;8.724;2024-01-30T00:05:31;101381.38;;;6.63;87.65
11223;BME280;5668;52.012;8.724;2024-01-30T00:07:58;101373.72;;;6.61;87.56
11223;BME280;5668;52.012;8.724;2024-01-30T00:10:26;101376.34;;;6.59;86.95
11223;BME280;5668;52.012;8.724;2024-01-30T00:12:53;101367.69;;;6.60;86.76
11223;BME280;5668;52.012;8.724;2024-01-30T00:15:21;101371.22;;;6.58;86.81
11223;BME280;5668;52.012;8.724;2024-01-30T00:17:49;101373.97;;;6.53;86.63
11223;BME280;5668;52.012;8.724;2024-01-30T00:20:19;101380.03;;;6.52;87.61
11223;BME280;5668;52.012;8.724;2024-01-30T00:22:46;101377.56;;;6.49;87.20
11223;BME280;5668;52.012;8.724;2024-01-30T00:25:13;101372.34;;;6.51;87.83
11223;BME280;5668;52.012;8.724;2024-01-30T00:27:42;101377.56;;;6.49;87.28
11223;BME280;5668;52.012;8.724;2024-01-30T00:30:10;101377.72;;;6.45;88.27
11223;BME280;5668;52.012;8.724;2024-01-30T00:32:39;101383.00;;;6.42;87.68
11223;BME280;5668;52.012;8.724;2024-01-30T00:35:06;101375.28;;;6.40;88.35
11223;BME280;5668;52.012;8.724;2024-01-30T00:37:35;101373.50;;;6.42;87.94
11223;BME280;5668;52.012;8.724;2024-01-30T00:40:04;101382.09;;;6.43;87.95
11223;BME280;5668;52.012;8.724;2024-01-30T00:42:32;101377.84;;;6.42;88.29
11223;BME280;5668;52.012;8.724;2024-01-30T00:44:59;101375.44;;;6.37;87.51
11223;BME280;5668;52.012;8.724;2024-01-30T00:47:26;101377.22;;;6.35;88.71
11223;BME280;5668;52.012;8.724;2024-01-30T00:49:56;101380.69;;;6.34;88.85
11223;BME280;5668;52.012;8.724;2024-01-30T00:52:23;101373.13;;;6.30;88.81
11223;BME280;5668;52.012;8.724;2024-01-30T00:54:50;101382.69;;;6.26;89.38
11223;BME280;5668;52.012;8.724;2024-01-30T00:57:18;101376.69;;;6.26;89.59
11223;BME280;5668;52.012;8.724;2024-01-30T00:59:45;101381.88;;;6.24;90.53
11223;BME280;5668;52.012;8.724;2024-01-30T01:02:12;101380.91;;;6.28;90.88
11223;BME280;5668;52.012;8.724;2024-01-30T01:04:41;101382.59;;;6.29;90.53
11223;BME280;5668;52.012;8.724;2024-01-30T01:07:09;101381.78;;;6.27;91.31
11223;BME280;5668;52.012;8.724;2024-01-30T01:09:37;101381.88;;;6.24;91.66
11223;BME280;5668;52.012;8.724;2024-01-30T01:12:05;101375.91;;;6.24;91.04
11223;BME280;5668;52.012;8.724;2024-01-30T01:14:32;101378.41;;;6.25;91.40
11223;BME280;5668;52.012;8.724;2024-01-30T01:16:59;101375.84;;;6.25;91.53
11223;BME280;5668;52.012;8.724;2024-01-30T01:19:26;101374.94;;;6.26;92.10
11223;BME280;5668;52.012;8.724;2024-01-30T01:21:54;101378.28;;;6.30;92.72
11223;BME280;5668;52.012;8.724;2024-01-30T01:24:22;101372.16;;;6.32;92.53
11223;BME280;5668;52.012;8.724;2024-01-30T01:26:50;101377.22;;;6.35;92.51
11223;BME280;5668;52.012;8.724;2024-01-30T01:29:17;101369.47;;;6.35;91.76
11223;BME280;5668;52.012;8.724;2024-01-30T01:31:44;101372.97;;;6.33;92.72
11223;BME280;5668;52.012;8.724;2024-01-30T01:34:12;101374.81;;;6.31;92.51
11223;BME280;5668;52.012;8.724;2024-01-30T01:36:40;101367.94;;;6.30;92.24
11223;BME280;5668;52.012;8.724;2024-01-30T01:39:07;101362.94;;;6.25;92.98
11223;BME280;5668;52.012;8.724;2024-01-30T01:41:36;101359.50;;;6.25;93.18
11223;BME280;5668;52.012;8.724;2024-01-30T01:44:04;101364.63;;;6.26;93.76
11223;BME280;5668;52.012;8.724;2024-01-30T01:46:33;101361.19;;;6.26;93.76
11223;BME280;5668;52.012;8.724;2024-01-30T01:49:02;101356.88;;;6.26;94.07
11223;BME280;5668;52.012;8.724;2024-01-30T01:51:33;101349.19;;;6.25;95.30
11223;BME280;5668;52.012;8.724;2024-01-30T01:54:03;101350.72;;;6.30;95.31
11223;BME280;5668;52.012;8.724;2024-01-30T01:56:31;101351.50;;;6.32;94.69
11223;BME280;5668;52.012;8.724;2024-01-30T01:59:05;101350.59;;;6.33;95.17
11223;BME280;5668;52.012;8.724;2024-01-30T02:01:33;101346.22;;;6.35;95.94
11223;BME280;5668;52.012;8.724;2024-01-30T02:04:01;101346.97;;;6.39;95.74
11223;BME280;5668;52.012;8.724;2024-01-30T02:06:28;101347.69;;;6.42;95.74
11223;BME280;5668;52.012;8.724;2024-01-30T02:08:56;101335.69;;;6.41;95.17
11223;BME280;5668;52.012;8.724;2024-01-30T02:11:24;101342.53;;;6.42;95.89
11223;BME280;5668;52.012;8.724;2024-01-30T02:13:51;101337.47;;;6.39;95.41
11223;BME280;5668;52.012;8.724;2024-01-30T02:16:19;101340.00;;;6.41;94.62
11223;BME280;5668;52.012;8.724;2024-01-30T02:18:46;101341.69;;;6.42;94.66
11223;BME280;5668;52.012;8.724;2024-01-30T02:21:16;101335.63;;;6.43;94.13
11223;BME280;5668;52.012;8.724;2024-01-30T02:23:44;101333.84;;;6.45;93.80
11223;BME280;5668;52.012;8.724;2024-01-30T02:26:11;101331.31;;;6.43;94.60
11223;BME280;5668;52.012;8.724;2024-01-30T02:28:39;101335.59;;;6.44;93.94
11223;BME280;5668;52.012;8.724;2024-01-30T02:31:06;101327.94;;;6.41;93.66
11223;BME280;5668;52.012;8.724;2024-01-30T02:33:33;101329.63;;;6.42;93.73
11223;BME280;5668;52.012;8.724;2024-01-30T02:36:00;101323.56;;;6.43;93.86
11223;BME280;5668;52.012;8.724;2024-01-30T02:38:29;101316.72;;;6.42;93.50
11223;BME280;5668;52.012;8.724;2024-01-30T02:40:56;101322.72;;;6.43;93.90
11223;BME280;5668;52.012;8.724;2024-01-30T02:43:23;101319.19;;;6.45;93.74
11223;BME280;5668;52.012;8.724;2024-01-30T02:45:50;101315.81;;;6.43;92.80
11223;BME280;5668;52.012;8.724;2024-01-30T02:48:18;101309.81;;;6.43;93.47
11223;BME280;5668;52.012;8.724;2024-01-30T02:50:45;101308.97;;;6.42;92.29
11223;BME280;5668;52.012;8.724;2024-01-30T02:53:13;101310.09;;;6.35;92.50
11223;BME280;5668;52.012;8.724;2024-01-30T02:55:41;101303.28;;;6.33;93.06
11223;BME280;5668;52.012;8.724;2024-01-30T02:58:09;101303.38;;;6.31;93.02
11223;BME280;5668;52.012;8.724;2024-01-30T03:00:36;101300.00;;;6.29;92.36
11223;BME280;5668;52.012;8.724;2024-01-30T03:03:03;101304.38;;;6.27;93.16
11223;BME280;5668;52.012;8.724;2024-01-30T03:05:31;101293.16;;;6.28;92.31
11223;BME280;5668;52.012;8.724;2024-01-30T03:07:58;101293.16;;;6.28;92.54
11223;BME280;5668;52.012;8.724;2024-01-30T03:10:25;101288.78;;;6.30;92.62
11223;BME280;5668;52.012;8.724;2024-01-30T03:12:54;101287.75;;;6.34;93.04
11223;BME280;5668;52.012;8.724;2024-01-30T03:15:21;101282.72;;;6.31;93.14
11223;BME280;5668;52.012;8.724;2024-01-30T03:17:49;101275.88;;;6.30;93.49
11223;BME280;5668;52.012;8.724;2024-01-30T03:20:17;101271.84;;;6.23;93.35
11223;BME280;5668;52.012;8.724;2024-01-30T03:22:44;101271.28;;;6.15;94.09
11223;BME280;5668;52.012;8.724;2024-01-30T03:25:12;101268.00;;;6.10;94.90
11223;BME280;5668;52.012;8.724;2024-01-30T03:27:39;101262.84;;;6.10;95.34
11223;BME280;5668;52.012;8.724;2024-01-30T03:30:09;101257.66;;;6.10;95.77
11223;BME280;5668;52.012;8.724;2024-01-30T03:32:36;101254.09;;;6.14;96.60
11223;BME280;5668;52.012;8.724;2024-01-30T03:38:25;101265.66;;;6.27;97.17
11223;BME280;5668;52.012;8.724;2024-01-30T03:40:53;101265.59;;;6.29;98.28
11223;BME280;5668;52.012;8.724;2024-01-30T03:43:20;101264.19;;;6.20;96.61
11223;BME280;5668;52.012;8.724;2024-01-30T03:45:48;101257.66;;;6.10;96.76
11223;BME280;5668;52.012;8.724;2024-01-30T03:48:15;101257.81;;;6.07;96.91
11223;BME280;5668;52.012;8.724;2024-01-30T03:50:43;101261.50;;;6.00;96.50
11223;BME280;5668;52.012;8.724;2024-01-30T03:53:10;101263.28;;;5.98;96.03
11223;BME280;5668;52.012;8.724;2024-01-30T03:55:37;101258.34;;;5.92;96.25
11223;BME280;5668;52.012;8.724;2024-01-30T03:58:04;101258.34;;;5.92;96.49
11223;BME280;5668;52.012;8.724;2024-01-30T04:00:32;101255.72;;;5.93;96.67
11223;BME280;5668;52.012;8.724;2024-01-30T04:03:00;101249.50;;;5.99;96.28
11223;BME280;5668;52.012;8.724;2024-01-30T04:05:28;101252.88;;;6.01;96.83
11223;BME280;5668;52.012;8.724;2024-01-30T04:07:55;101245.78;;;6.06;96.68
11223;BME280;5668;52.012;8.724;2024-01-30T04:10:23;101248.28;;;6.09;96.45
11223;BME280;5668;52.012;8.724;2024-01-30T04:12:50;101243.88;;;6.11;96.26
11223;BME280;5668;52.012;8.724;2024-01-30T04:15:19;101236.09;;;6.12;95.77
11223;BME280;5668;52.012;8.724;2024-01-30T04:17:47;101243.78;;;6.14;95.24
11223;BME280;5668;52.012;8.724;2024-01-30T04:20:17;101230.88;;;6.14;95.75
11223;BME280;5668;52.012;8.724;2024-01-30T04:25:13;101236.31;;;6.06;93.83
11223;BME280;5668;52.012;8.724;2024-01-30T04:27:41;101236.31;;;6.06;94.66
11223;BME280;5668;52.012;8.724;2024-01-30T04:30:09;101235.47;;;6.06;94.25
11223;BME280;5668;52.012;8.724;2024-01-30T04:32:36;101238.06;;;6.06;94.17
11223;BME280;5668;52.012;8.724;2024-01-30T04:35:04;101226.84;;;6.07;93.44
11223;BME280;5668;52.012;8.724;2024-01-30T04:37:33;101232.84;;;6.07;93.95
11223;BME280;5668;52.012;8.724;2024-01-30T04:40:00;101238.84;;;6.08;93.90
11223;BME280;5668;52.012;8.724;2024-01-30T04:42:29;101239.69;;;6.08;93.57
11223;BME280;5668;52.012;8.724;2024-01-30T04:44:56;101234.44;;;6.10;93.09
11223;BME280;5668;52.012;8.724;2024-01-30T04:47:23;101235.56;;;6.03;92.61
11223;BME280;5668;52.012;8.724;2024-01-30T04:49:52;101232.31;;;5.98;92.83
11223;BME280;5668;52.012;8.724;2024-01-30T04:52:19;101234.94;;;5.96;93.13
11223;BME280;5668;52.012;8.724;2024-01-30T04:54:47;101235.84;;;5.95;93.38
11223;BME280;5668;52.012;8.724;2024-01-30T04:57:15;101233.25;;;5.95;93.35
11223;BME280;5668;52.012;8.724;2024-01-30T04:59:42;101235.84;;;5.95;93.97
11223;BME280;5668;52.012;8.724;2024-01-30T05:02:09;101240.97;;;5.97;93.64
11223;BME280;5668;52.012;8.724;2024-01-30T05:04:36;101237.47;;;5.98;93.63
11223;BME280;5668;52.012;8.724;2024-01-30T05:07:03;101233.22;;;5.97;93.53
11223;BME280;5668;52.012;8.724;2024-01-30T05:09:31;101242.75;;;5.95;93.28
11223;BME280;5668;52.012;8.724;2024-01-30T05:11:58;101242.88;;;5.92;92.93
11223;BME280;5668;52.012;8.724;2024-01-30T05:14:26;101238.66;;;5.89;93.31
11223;BME280;5668;52.012;8.724;2024-01-30T05:16:53;101242.06;;;5.90;93.35
11223;BME280;5668;52.012;8.724;2024-01-30T05:19:20;101242.91;;;5.90;92.77
11223;BME280;5668;52.012;8.724;2024-01-30T05:21:49;101242.03;;;5.91;92.92
11223;BME280;5668;52.012;8.724;2024-01-30T05:24:16;101238.66;;;5.89;92.74
11223;BME280;5668;52.012;8.724;2024-01-30T05:26:44;101234.34;;;5.90;92.75
11223;BME280;5668;52.012;8.724;2024-01-30T05:29:13;101230.97;;;5.88;92.51
11223;BME280;5668;52.012;8.724;2024-01-30T05:31:40;101231.75;;;5.90;92.97
11223;BME280;5668;52.012;8.724;2024-01-30T05:34:07;101230.97;;;5.88;93.52
11223;BME280;5668;52.012;8.724;2024-01-30T05:36:35;101222.44;;;5.86;93.06
11223;BME280;5668;52.012;8.724;2024-01-30T05:39:02;101231.91;;;5.85;93.39
11223;BME280;5668;52.012;8.724;2024-01-30T05:41:30;101224.09;;;5.87;93.29
11223;BME280;5668;52.012;8.724;2024-01-30T05:43:58;101220.84;;;5.81;93.21
11223;BME280;5668;52.012;8.724;2024-01-30T05:46:27;101224.31;;;5.80;93.48
11223;BME280;5668;52.012;8.724;2024-01-30T05:48:54;101214.78;;;5.82;93.76
11223;BME280;5668;52.012;8.724;2024-01-30T05:51:21;101213.84;;;5.85;94.09
11223;BME280;5668;52.012;8.724;2024-01-30T05:53:49;101216.31;;;5.88;94.29
11223;BME280;5668;52.012;8.724;2024-01-30T05:56:16;101217.19;;;5.87;93.95
11223;BME280;5668;52.012;8.724;2024-01-30T05:58:43;101223.19;;;5.89;94.62
11223;BME280;5668;52.012;8.724;2024-01-30T06:01:10;101219.75;;;5.89;94.72
11223;BME280;5668;52.012;8.724;2024-01-30T06:03:39;101216.28;;;5.90;94.42
11223;BME280;5668;52.012;8.724;2024-01-30T06:06:06;101215.47;;;5.88;93.64
11223;BME280;5668;52.012;8.724;2024-01-30T06:08:33;101214.75;;;5.84;94.48
11223;BME280;5668;52.012;8.724;2024-01-30T06:11:01;101208.97;;;5.77;94.14
11223;BME280;5668;52.012;8.724;2024-01-30T06:13:28;101222.00;;;5.73;93.84
11223;BME280;5668;52.012;8.724;2024-01-30T06:15:57;101217.69;;;5.73;94.38
11223;BME280;5668;52.012;8.724;2024-01-30T06:18:24;101218.66;;;5.71;94.06
11223;BME280;5668;52.012;8.724;2024-01-30T06:20:54;101224.06;;;5.63;94.37
11223;BME280;5668;52.012;8.724;2024-01-30T06:23:21;101218.06;;;5.63;94.70
11223;BME280;5668;52.012;8.724;2024-01-30T06:25:48;101220.69;;;5.61;94.94
11223;BME280;5668;52.012;8.724;2024-01-30T06:28:16;101225.00;;;5.61;95.38
11223;BME280;5668;52.012;8.724;2024-01-30T06:30:43;101215.41;;;5.64;95.89
11223;BME280;5668;52.012;8.724;2024-01-30T06:33:12;101216.13;;;5.69;96.19
11223;BME280;5668;52.012;8.724;2024-01-30T06:35:41;101213.41;;;5.72;97.06
11223;BME280;5668;52.012;8.724;2024-01-30T06:38:09;101209.09;;;5.73;97.50
11223;BME280;5668;52.012;8.724;2024-01-30T06:40:36;101211.59;;;5.76;97.33
11223;BME280;5668;52.012;8.724;2024-01-30T06:43:04;101209.81;;;5.78;98.37
11223;BME280;5668;52.012;8.724;2024-01-30T06:45:32;101210.66;;;5.78;97.80
11223;BME280;5668;52.012;8.724;2024-01-30T06:48:00;101214.84;;;5.81;98.36
11223;BME280;5668;52.012;8.724;2024-01-30T06:50:27;101220.84;;;5.81;98.44
11223;BME280;5668;52.012;8.724;2024-01-30T06:52:54;101212.31;;;5.79;98.60
11223;BME280;5668;52.012;8.724;2024-01-30T06:55:23;101222.78;;;5.75;98.48
11223;BME280;5668;52.012;8.724;2024-01-30T06:57:50;101216.00;;;5.72;97.79
11223;BME280;5668;52.012;8.724;2024-01-30T07:00:18;101221.28;;;5.69;97.86
11223;BME280;5668;52.012;8.724;2024-01-30T07:02:45;101217.81;;;5.70;98.05
11223;BME280;5668;52.012;8.724;2024-01-30T07:05:12;101224.63;;;5.71;97.56
11223;BME280;5668;52.012;8.724;2024-01-30T07:07:41;101220.25;;;5.73;97.61
11223;BME280;5668;52.012;8.724;2024-01-30T07:10:09;101211.63;;;5.74;97.54
11223;BME280;5668;52.012;8.724;2024-01-30T07:12:37;101215.06;;;5.75;97.72
11223;BME280;5668;52.012;8.724;2024-01-30T07:15:05;101216.84;;;5.73;97.67
11223;BME280;5668;52.012;8.724;2024-01-30T07:17:34;101206.56;;;5.71;97.08
11223;BME280;5668;52.012;8.724;2024-01-30T07:20:01;101209.94;;;5.73;97.00
11223;BME280;5668;52.012;8.724;2024-01-30T07:22:30;101212.66;;;5.70;97.29
11223;BME280;5668;52.012;8.724;2024-01-30T07:24:57;101210.00;;;5.72;97.45
11223;BME280;5668;52.012;8.724;2024-01-30T07:27:24;101211.59;;;5.76;97.26
11223;BME280;5668;52.012;8.724;2024-01-30T07:29:53;101208.97;;;5.77;97.51
11223;BME280;5668;52.012;8.724;2024-01-30T07:32:20;101217.53;;;5.78;98.64
11223;BME280;5668;52.012;8.724;2024-01-30T07:34:47;101210.69;;;5.77;98.93
11223;BME280;5668;52.012;8.724;2024-01-30T07:37:15;101216.69;;;5.77;99.07
11223;BME280;5668;52.012;8.724;2024-01-30T07:39:42;101211.31;;;5.83;99.52
11223;BME280;5668;52.012;8.724;2024-01-30T07:42:09;101218.06;;;5.88;99.48
11223;BME280;5668;52.012;8.724;2024-01-30T07:44:37;101212.81;;;5.91;99.43
11223;BME280;5668;52.012;8.724;2024-01-30T07:47:05;101218.84;;;5.90;99.79
11223;BME280;5668;52.012;8.724;2024-01-30T07:49:33;101224.00;;;5.90;99.18
11223;BME280;5668;52.012;8.724;2024-01-30T07:52:00;101217.28;;;5.86;98.60
11223;BME280;5668;52.012;8.724;2024-01-30T07:54:31;101219.06;;;5.83;98.36
11223;BME280;5668;52.012;8.724;2024-01-30T07:56:59;101221.72;;;5.80;97.95
11223;BME280;5668;52.012;8.724;2024-01-30T07:59:27;101220.97;;;5.78;98.26
11223;BME280;5668;52.012;8.724;2024-01-30T08:01:54;101219.16;;;5.80;98.26
11223;BME280;5668;52.012;8.724;2024-01-30T08:04:22;101223.31;;;5.84;98.56
11223;BME280;5668;52.012;8.724;2024-01-30T08:06:50;101222.34;;;5.89;99.41
11223;BME280;5668;52.012;8.724;2024-01-30T08:09:17;101222.09;;;5.95;99.09
11223;BME280;5668;52.012;8.724;2024-01-30T08:11:44;101222.00;;;5.98;99.24
11223;BME280;5668;52.012;8.724;2024-01-30T08:14:11;101227.06;;;6.01;99.99
11223;BME280;5668;52.012;8.724;2024-01-30T08:16:39;101218.41;;;6.02;100.00
11223;BME280;5668;52.012;8.724;2024-01-30T08:19:07;101219.19;;;6.04;100.00
11223;BME280;5668;52.012;8.724;2024-01-30T08:21:35;101217.41;;;6.06;100.00
11223;BME280;5668;52.012;8.724;2024-01-30T08:24:04;101221.78;;;6.04;100.00
11223;BME280;5668;52.012;8.724;2024-01-30T08:26:32;101218.41;;;6.02;99.79
11223;BME280;5668;52.012;8.724;2024-01-30T08:29:30;101210.63;;;6.03;99.85
11223;BME280;5668;52.012;8.724;2024-01-30T08:31:57;101201.03;;;6.07;100.00
11223;BME280;5668;52.012;8.724;2024-01-30T08:34:25;101201.69;;;6.12;100.00
11223;BME280;5668;52.012;8.724;2024-01-30T08:36:53;101209.34;;;6.15;100.00
11223;BME280;5668;52.012;8.724;2024-01-30T08:39:21;101210.09;;;6.17;100.00
11223;BME280;5668;52.012;8.724;2024-01-30T08:41:48;101214.25;;;6.21;100.00
11223;BME280;5668;52.012;8.724;2024-01-30T08:44:15;101216.66;;;6.26;100.00
11223;BME280;5668;52.012;8.724;2024-01-30T08:46:43;101214.81;;;6.29;100.00
11223;BME280;5668;52.012;8.724;2024-01-30T08:49:11;101215.53;;;6.33;100.00
11223;BME280;5668;52.012;8.724;2024-01-30T08:51:39;101230.03;;;6.37;100.00
11223;BME280;5668;52.012;8.724;2024-01-30T08:54:08;101232.41;;;6.41;100.00
11223;BME280;5668;52.012;8.724;2024-01-30T08:56:35;101234.84;;;6.46;100.00
11223;BME280;5668;52.012;8.724;2024-01-30T08:59:02;101237.19;;;6.52;100.00
11223;BME280;5668;52.012;8.724;2024-01-30T09:01:30;101234.41;;;6.56;100.00
11223;BME280;5668;52.012;8.724;2024-01-30T09:03:57;101230.84;;;6.60;100.00
11223;BME280;5668;52.012;8.724;2024-01-30T09:06:24;101229.84;;;6.63;100.00
11223;BME280;5668;52.012;8.724;2024-01-30T09:08:53;101228.00;;;6.67;100.00
11223;BME280;5668;52.012;8.724;2024-01-30T09:11:22;101222.69;;;6.70;100.00
11223;BME280;5668;52.012;8.724;2024-01-30T09:13:49;101228.56;;;6.75;100.00
11223;BME280;5668;52.012;8.724;2024-01-30T09:16:17;101223.19;;;6.79;100.00
11223;BME280;5668;52.012;8.724;2024-01-30T09:18:44;101224.78;;;6.83;100.00
11223;BME280;5668;52.012;8.724;2024-01-30T09:21:11;101229.75;;;6.88;100.00
11223;BME280;5668;52.012;8.724;2024-01-30T09:23:39;101227.94;;;6.90;100.00
11223;BME280;5668;52.012;8.724;2024-01-30T09:26:06;101226.91;;;6.94;100.00
11223;BME280;5668;52.012;8.724;2024-01-30T09:28:35;101236.22;;;6.98;100.00
11223;BME280;5668;52.012;8.724;2024-01-30T09:31:02;101231.13;;;6.96;100.00
11223;BME280;5668;52.012;8.724;2024-01-30T09:33:31;101237.13;;;6.97;100.00
11223;BME280;5668;52.012;8.724;2024-01-30T09:36:00;101222.53;;;6.96;100.00
11223;BME280;5668;52.012;8.724;2024-01-30T09:38:28;101231.19;;;6.95;100.00
11223;BME280;5668;52.012;8.724;2024-01-30T09:40:55;101226.00;;;6.95;100.00
11223;BME280;5668;52.012;8.724;2024-01-30T09:43:23;101225.94;;;6.96;100.00
11223;BME280;5668;52.012;8.724;2024-01-30T09:45:52;101227.44;;;7.02;100.00
11223;BME280;5668;52.012;8.724;2024-01-30T09:48:20;101221.38;;;7.03;100.00
11223;BME280;5668;52.012;8.724;2024-01-30T09:50:48;101223.84;;;7.06;100.00
11223;BME280;5668;52.012;8.724;2024-01-30T09:53:16;101227.78;;;7.15;100.00
11223;BME280;5668;52.012;8.724;2024-01-30T09:55:44;101228.50;;;7.18;100.00
11223;BME280;5668;52.012;8.724;2024-01-30T09:58:12;101223.22;;;7.21;100.00
11223;BME280;5668;52.012;8.724;2024-01-30T10:00:40;101222.38;;;7.21;100.00
11223;BME280;5668;52.012;8.724;2024-01-30T10:03:09;101224.75;;;7.25;100.00
11223;BME280;5668;52.012;8.724;2024-01-30T10:05:37;101220.22;;;7.30;100.00
11223;BME280;5668;52.012;8.724;2024-01-30T10:08:07;101214.81;;;7.36;100.00
11223;BME280;5668;52.012;8.724;2024-01-30T10:10:35;101224.00;;;7.44;100.00
11223;BME280;5668;52.012;8.724;2024-01-30T10:13:02;101216.81;;;7.50;100.00
11223;BME280;5668;52.012;8.724;2024-01-30T10:15:29;101221.72;;;7.56;100.00
11223;BME280;5668;52.012;8.724;2024-01-30T10:17:57;101220.56;;;7.63;100.00
11223;BME280;5668;52.012;8.724;2024-01-30T10:20:26;101210.84;;;7.68;100.00
11223;BME280;5668;52.012;8.724;2024-01-30T10:22:53;101226.09;;;7.74;100.00
11223;BME280;5668;52.012;8.724;2024-01-30T10:25:22;101228.34;;;7.82;100.00
11223;BME280;5668;52.012;8.724;2024-01-30T10:27:53;101222.78;;;7.91;100.00
11223;BME280;5668;52.012;8.724;2024-01-30T10:30:21;101226.78;;;7.98;100.00
11223;BME280;5668;52.012;8.724;2024-01-30T10:35:14;101223.72;;;8.09;100.00
11223;BME280;5668;52.012;8.724;2024-01-30T10:37:44;101228.69;;;8.13;100.00
11223;BME280;5668;52.012;8.724;2024-01-30T10:40:15;101227.44;;;8.22;100.00
11223;BME280;5668;52.012;8.724;2024-01-30T10:42:44;101226.31;;;8.28;100.00
11223;BME280;5668;52.012;8.724;2024-01-30T10:45:12;101229.41;;;8.36;100.00
11223;BME280;5668;52.012;8.724;2024-01-30T10:47:49;101222.78;;;8.49;100.00
11223;BME280;5668;52.012;8.724;2024-01-30T10:50:21;101209.41;;;8.75;100.00
11223;BME280;5668;52.012;8.724;2024-01-30T10:52:53;101204.81;;;8.99;100.00
11223;BME280;5668;52.012;8.724;2024-01-30T10:55:22;101212.22;;;9.24;100.00
11223;BME280;5668;52.012;8.724;2024-01-30T10:57:50;101208.63;;;9.44;100.00
11223;BME280;5668;52.012;8.724;2024-01-30T11:00:18;101200.66;;;9.64;100.00
11223;BME280;5668;52.012;8.724;2024-01-30T11:02:49;101196.13;;;9.85;100.00
11223;BME280;5668;52.012;8.724;2024-01-30T11:05:24;101188.25;;;10.02;100.00
11223;BME280;5668;52.012;8.724;2024-01-30T11:07:54;101182.13;;;10.20;100.00
11223;BME280;5668;52.012;8.724;2024-01-30T11:10:22;101183.88;;;10.35;100.00
11223;BME280;5668;52.012;8.724;2024-01-30T11:12:51;101177.66;;;10.54;100.00
11223;BME280;5668;52.012;8.724;2024-01-30T11:15:19;101177.63;;;10.69;100.00
11223;BME280;5668;52.012;8.724;2024-01-30T11:17:51;101166.28;;;10.86;100.00
11223;BME280;5668;52.012;8.724;2024-01-30T11:20:21;101173.38;;;10.98;100.00
11223;BME280;5668;52.012;8.724;2024-01-30T11:22:50;101166.44;;;11.13;100.00
11223;BME280;5668;52.012;8.724;2024-01-30T11:25:20;101169.34;;;11.22;100.00
11223;BME280;5668;52.012;8.724;2024-01-30T11:27:50;101171.25;;;11.35;100.00
11223;BME280;5668;52.012;8.724;2024-01-30T11:30:22;101175.78;;;11.45;100.00
11223;BME280;5668;52.012;8.724;2024-01-30T11:32:59;101170.88;;;11.55;100.00
11223;BME280;5668;52.012;8.724;2024-01-30T11:35:26;101177.22;;;11.65;99.41
11223;BME280;5668;52.012;8.724;2024-01-30T11:37:54;101163.66;;;11.74;98.85
11223;BME280;5668;52.012;8.724;2024-01-30T11:40:27;101164.22;;;11.79;98.61
11223;BME280;5668;52.012;8.724;2024-01-30T11:42:55;101167.19;;;11.87;97.96
11223;BME280;5668;52.012;8.724;2024-01-30T11:45:22;101163.06;;;11.97;97.27
11223;BME280;5668;52.012;8.724;2024-01-30T11:47:50;101170.25;;;12.08;97.21
11223;BME280;5668;52.012;8.724;2024-01-30T11:50:18;101165.38;;;12.16;96.74
11223;BME280;5668;52.012;8.724;2024-01-30T11:52:46;101170.97;;;12.24;96.31
11223;BME280;5668;52.012;8.724;2024-01-30T11:55:14;101165.97;;;12.34;96.74
11223;BME280;5668;52.012;8.724;2024-01-30T11:57:43;101167.09;;;12.44;95.51
11223;BME280;5668;52.012;8.724;2024-01-30T12:00:15;101170.13;;;12.51;94.92
11223;BME280;5668;52.012;8.724;2024-01-30T12:02:43;101167.78;;;12.60;94.31
11223;BME280;5668;52.012;8.724;2024-01-30T12:05:10;101175.00;;;12.69;93.41
11223;BME280;5668;52.012;8.724;2024-01-30T12:07:37;101164.91;;;12.77;92.70
11223;BME280;5668;52.012;8.724;2024-01-30T12:10:09;101165.44;;;12.83;92.70
11223;BME280;5668;52.012;8.724;2024-01-30T12:12:45;101166.19;;;12.85;92.71
11223;BME280;5668;52.012;8.724;2024-01-30T12:15:13;101169.94;;;12.93;92.66
11223;BME280;5668;52.012;8.724;2024-01-30T12:17:40;101174.66;;;13.01;92.30
11223;BME280;5668;52.012;8.724;2024-01-30T12:20:10;101179.78;;;13.02;91.55
11223;BME280;5668;52.012;8.724;2024-01-30T12:22:39;101178.75;;;13.05;91.64
11223;BME280;5668;52.012;8.724;2024-01-30T12:25:09;101177.06;;;13.04;90.55
11223;BME280;5668;52.012;8.724;2024-01-30T12:27:36;101178.31;;;12.98;89.80
11223;BME280;5668;52.012;8.724;2024-01-30T12:30:07;101180.63;;;13.03;90.07
11223;BME280;5668;52.012;8.724;2024-01-30T12:32:35;101183.78;;;13.08;90.31
11223;BME280;5668;52.012;8.724;2024-01-30T12:35:03;101190.03;;;13.05;89.75
11223;BME280;5668;52.012;8.724;2024-01-30T12:37:30;101195.16;;;13.07;89.74
11223;BME280;5668;52.012;8.724;2024-01-30T12:39:58;101197.75;;;13.07;89.97
11223;BME280;5668;52.012;8.724;2024-01-30T12:42:27;101192.53;;;13.07;89.76
11223;BME280;5668;52.012;8.724;2024-01-30T12:44:56;101194.22;;;13.08;89.22
11223;BME280;5668;52.012;8.724;2024-01-30T12:47:25;101191.06;;;13.03;89.42
11223;BME280;5668;52.012;8.724;2024-01-30T12:49:53;101193.13;;;12.98;89.43
11223;BME280;5668;52.012;8.724;2024-01-30T12:52:21;101192.91;;;13.01;89.64
11223;BME280;5668;52.012;8.724;2024-01-30T12:54:49;101191.06;;;13.03;89.32
11223;BME280;5668;52.012;8.724;2024-01-30T12:57:16;101198.03;;;13.02;89.94
11223;BME280;5668;52.012;8.724;2024-01-30T12:59:44;101203.75;;;12.95;88.81
11223;BME280;5668;52.012;8.724;2024-01-30T13:02:13;101193.53;;;12.92;88.92
11223;BME280;5668;52.012;8.724;2024-01-30T13:04:42;101202.50;;;12.88;88.83
11223;BME280;5668;52.012;8.724;2024-01-30T13:07:10;101203.09;;;12.78;88.89
11223;BME280;5668;52.012;8.724;2024-01-30T13:09:37;101202.91;;;12.82;89.54
11223;BME280;5668;52.012;8.724;2024-01-30T13:12:04;101204.56;;;12.83;89.48
11223;BME280;5668;52.012;8.724;2024-01-30T13:14:31;101208.84;;;12.84;90.11
11223;BME280;5668;52.012;8.724;2024-01-30T13:16:59;101209.69;;;12.84;89.79
11223;BME280;5668;52.012;8.724;2024-01-30T13:19:26;101206.25;;;12.84;89.53